ETOU

Details ICAO ETOU
Name Wiesbaden AAF
Region Germany - Military
Timezone Europe/Berlin (UTC+2.0)
Plans Departing 8
Arriving 7
Stats Elevation 461 ft / 141 m (AMSL)
Location 50.049828° 8.325434°
Runways 1
Magnetic Variation 2.341° E
Sunrise 2018-05-27 03:28:07 UTC / 2018-05-27 05:28:07 Local
Sunset 2018-05-27 19:22:28 UTC / 2018-05-27 21:22:28 Local
Advertisement - Login to hide

Runways

ID Width Length Bearing (true) Bearing (mag) Surface Threshold Offset Overrun Length
07 120 ft / 37 m 7,047 ft / 2,148 m 73.29° 70.95° Asphalt 0 ft / 0 m 150 ft / 46 m
25 120 ft / 37 m 7,047 ft / 2,148 m 253.31° 250.97° Asphalt 121 ft / 37 m 150 ft / 46 m

Map

Weather


0- 5 10 15 20 25 30 35+ Temperature / ° C

Clouds and Precipitation
Forecast for 2018-05-27 12:00 UTC. Updated an hour ago

Ground ~20,000 ft ~40,000 ft Winds

METAR

ETOU 271156Z AUTO 14005KT 9999 FEW160 FEW200 28/14 A3005 RMK AO2 SLP172 T02770143 10279 20204 58012 $

TAF

Not found

Frequencies

Tower 122.10 MHz TWR
Departure 120.15 MHz FRANKFURT DEP
Approach 120.80 MHz FRANKFURT ARRIVAL
Warning: Do not use this data for real-world aviation or navigation. No guarantee of current accuracy is given.